Time;durP1;ratioP1;P1;durP2;ratioP2;P2;SDS_P1;SDS_P2;PMS_P1;PMS_P2;Temp;Humidity;BMP_temperature;BMP_pressure;BME280_temperature;BME280_humidity;BME280_pressure;Samples;Min_cycle;Max_cycle;Signal;HPM_P1;HPM_P2
2022/12/31 00:05:57;;;;;;;22.37;20.57;;;11.10;91.80;;;;;;5062858;28;20223;-91
2022/12/31 00:08:47;;;;;;;23.17;21.20;;;11.20;91.90;;;;;;5065460;28;20196;-92
2022/12/31 00:11:13;;;;;;;23.97;21.87;;;11.30;91.80;;;;;;5068919;28;20171;-91
2022/12/31 00:13:45;;;;;;;24.37;22.57;;;11.30;91.90;;;;;;5068241;28;20172;-91
2022/12/31 00:16:21;;;;;;;24.40;22.37;;;11.30;91.80;;;;;;5067460;28;20203;-91
2022/12/31 00:49:52;;;;;;;26.13;24.03;;;11.30;91.70;;;;;;6051413;22;20249;-92
2022/12/31 03:37:54;;;;;;;52.97;49.47;;;11.10;95.50;;;;;;5238288;22;20200;-92
2022/12/31 03:40:34;;;;;;;56.27;52.70;;;11.10;95.50;;;;;;5037649;28;20169;-92
2022/12/31 03:43:00;;;;;;;57.03;53.50;;;11.00;95.50;;;;;;5023125;28;20200;-92
2022/12/31 03:45:26;;;;;;;54.33;50.83;;;11.00;95.50;;;;;;5040044;28;20146;-90
2022/12/31 03:47:51;;;;;;;56.40;52.60;;;11.00;95.60;;;;;;5022525;28;20165;-88
2022/12/31 03:50:18;;;;;;;52.10;48.70;;;10.90;95.80;;;;;;5022012;28;20273;-91
2022/12/31 03:52:44;;;;;;;51.90;48.50;;;11.00;95.90;;;;;;5021876;28;20181;-90
2022/12/31 03:55:10;;;;;;;54.17;50.60;;;11.00;95.90;;;;;;5021769;28;20186;-90
2022/12/31 03:57:36;;;;;;;51.03;47.60;;;11.00;96.00;;;;;;5021695;28;20162;-89
2022/12/31 04:00:06;;;;;;;50.10;46.67;;;11.00;96.10;;;;;;5021756;28;20170;-91
2022/12/31 04:02:31;;;;;;;50.23;47.00;;;11.00;96.10;;;;;;5021800;28;20161;-90
2022/12/31 04:05:03;;;;;;;50.97;47.40;;;11.00;96.20;;;;;;5021641;28;20188;-91
2022/12/31 04:07:29;;;;;;;49.20;45.97;;;11.00;96.30;;;;;;5021171;28;20220;-90
2022/12/31 04:09:54;;;;;;;48.47;45.37;;;11.00;96.30;;;;;;5021701;28;20189;-90
2022/12/31 04:12:20;;;;;;;44.43;41.63;;;10.90;96.30;;;;;;5021610;28;20166;-89
2022/12/31 04:14:46;;;;;;;43.83;40.87;;;10.90;96.30;;;;;;5038442;28;20237;-89
2022/12/31 04:17:11;;;;;;;46.37;43.37;;;10.90;96.40;;;;;;5021663;28;20173;-89
2022/12/31 04:19:37;;;;;;;47.43;44.33;;;10.80;96.40;;;;;;5021729;28;20157;-89
2022/12/31 04:22:03;;;;;;;45.40;42.27;;;10.80;96.40;;;;;;5021426;28;20265;-90
2022/12/31 04:24:29;;;;;;;49.27;46.07;;;10.80;96.50;;;;;;5021399;28;20181;-92
2022/12/31 04:26:55;;;;;;;50.37;47.03;;;10.80;96.50;;;;;;5020637;28;20194;-91
2022/12/31 04:29:21;;;;;;;50.97;47.13;;;10.80;96.50;;;;;;5024291;28;20201;-92
2022/12/31 04:31:46;;;;;;;48.73;45.20;;;10.80;96.60;;;;;;5023231;28;20185;-92
2022/12/31 04:34:12;;;;;;;49.20;46.07;;;10.90;96.60;;;;;;5023738;28;21184;-91
2022/12/31 04:36:38;;;;;;;47.90;44.50;;;10.90;96.60;;;;;;5024289;28;20189;-91
2022/12/31 04:39:03;;;;;;;49.97;46.43;;;11.00;96.60;;;;;;5023502;28;20182;-92
2022/12/31 04:41:29;;;;;;;46.17;43.03;;;11.00;96.50;;;;;;5024600;28;20157;-91
2022/12/31 04:43:57;;;;;;;49.43;46.23;;;11.10;96.50;;;;;;5024504;28;20181;-92
2022/12/31 04:46:30;;;;;;;49.10;45.93;;;11.00;96.40;;;;;;5024710;28;20181;-92
2022/12/31 04:48:56;;;;;;;50.60;47.33;;;11.00;96.40;;;;;;5024735;28;20197;-91
2022/12/31 04:51:26;;;;;;;52.53;49.00;;;11.00;96.40;;;;;;5024469;28;20165;-91
2022/12/31 04:53:59;;;;;;;51.20;47.57;;;11.00;96.40;;;;;;5024153;28;20174;-90
2022/12/31 04:56:26;;;;;;;51.37;48.07;;;11.00;96.30;;;;;;5024316;28;20253;-91
2022/12/31 04:58:52;;;;;;;52.47;49.07;;;11.00;96.20;;;;;;5024285;28;20217;-92
2022/12/31 05:01:19;;;;;;;51.87;48.23;;;11.00;96.20;;;;;;5024580;28;20173;-92
2022/12/31 05:03:57;;;;;;;50.57;47.10;;;10.90;96.10;;;;;;5024419;28;20205;-91
2022/12/31 05:09:04;;;;;;;49.10;46.00;;;10.90;95.90;;;;;;5144323;22;20228;-91
2022/12/31 05:11:38;;;;;;;46.27;43.47;;;10.90;95.90;;;;;;5024453;28;20162;-91
2022/12/31 05:14:22;;;;;;;50.13;46.93;;;10.90;95.90;;;;;;5024291;28;20181;-91
2022/12/31 05:16:54;;;;;;;48.73;45.53;;;10.90;95.90;;;;;;5002155;28;20170;-91
2022/12/31 05:19:28;;;;;;;46.83;43.93;;;10.90;95.80;;;;;;5004360;28;20162;-92
2022/12/31 06:00:47;;;;;;;50.97;48.07;;;10.80;95.70;;;;;;4572615;22;20239;-93
2022/12/31 06:03:13;;;;;;;50.73;47.70;;;10.80;95.60;;;;;;5022862;28;20157;-92
2022/12/31 06:05:42;;;;;;;49.10;46.07;;;10.80;95.70;;;;;;5022566;28;20192;-93
2022/12/31 06:08:09;;;;;;;52.57;49.23;;;10.80;95.80;;;;;;5022506;28;20169;-92
2022/12/31 06:10:40;;;;;;;54.07;50.53;;;10.80;95.80;;;;;;5023099;28;20181;-92
2022/12/31 06:13:07;;;;;;;50.80;47.73;;;10.80;95.80;;;;;;5023101;28;20154;-92
2022/12/31 06:15:35;;;;;;;48.43;45.53;;;10.70;95.70;;;;;;5022848;28;20185;-90
2022/12/31 06:18:01;;;;;;;47.90;45.10;;;10.80;95.80;;;;;;5022611;28;20173;-91
2022/12/31 06:20:47;;;;;;;50.33;47.33;;;10.80;95.70;;;;;;5022629;28;20165;-90
2022/12/31 06:23:16;;;;;;;47.97;45.07;;;10.80;95.70;;;;;;5022769;28;20157;-90
2022/12/31 06:25:48;;;;;;;47.67;44.93;;;10.70;95.80;;;;;;5020982;28;20257;-92
2022/12/31 06:28:24;;;;;;;48.33;45.53;;;10.80;95.80;;;;;;5022582;28;20172;-92
2022/12/31 06:31:30;;;;;;;47.30;44.53;;;10.70;95.70;;;;;;5017094;28;20165;-92
2022/12/31 06:33:56;;;;;;;47.10;44.40;;;10.70;95.80;;;;;;5021447;28;20169;-92
2022/12/31 12:06:44;;;;;;;30.17;28.47;;;12.80;93.80;;;;;;5336452;22;20229;-93
2022/12/31 12:09:16;;;;;;;29.70;28.00;;;12.80;93.60;;;;;;5090126;23;20231;-92
2022/12/31 12:11:42;;;;;;;29.30;27.60;;;13.00;93.20;;;;;;5061076;28;20173;-91
2022/12/31 12:14:32;;;;;;;28.07;26.47;;;13.10;92.80;;;;;;5060310;28;20165;-93
2022/12/31 12:16:58;;;;;;;28.80;27.10;;;13.00;92.50;;;;;;5040489;28;20188;-93
2022/12/31 12:19:34;;;;;;;28.77;27.17;;;13.00;92.50;;;;;;5041181;28;20172;-93
2022/12/31 12:22:20;;;;;;;28.47;26.87;;;13.10;92.40;;;;;;5040700;28;20165;-93
2022/12/31 12:24:57;;;;;;;26.93;25.43;;;13.00;92.50;;;;;;5041009;28;20189;-93
2022/12/31 12:27:27;;;;;;;26.23;24.73;;;13.20;92.20;;;;;;5041181;28;20188;-93
2022/12/31 12:32:30;;;;;;;27.30;25.70;;;13.20;91.80;;;;;;5020611;28;20216;-92
2022/12/31 12:34:56;;;;;;;28.80;27.10;;;13.10;92.00;;;;;;5065560;22;20225;-93
2022/12/31 12:37:48;;;;;;;27.73;26.23;;;13.10;92.10;;;;;;5016492;28;20220;-93
2022/12/31 12:40:59;;;;;;;29.57;27.87;;;13.10;92.10;;;;;;5020884;28;20166;-91
2022/12/31 12:43:28;;;;;;;27.40;25.77;;;13.10;92.00;;;;;;5021265;28;20158;-92
2022/12/31 12:46:31;;;;;;;29.27;27.57;;;13.20;91.90;;;;;;5299689;22;20232;-94
2022/12/31 12:49:06;;;;;;;29.50;27.80;;;13.30;91.60;;;;;;4962937;28;20205;-93
2022/12/31 12:52:23;;;;;;;30.50;28.40;;;13.20;91.70;;;;;;5213978;23;20227;-92
2022/12/31 12:55:14;;;;;;;26.77;25.10;;;13.30;91.50;;;;;;5205351;22;20217;-92
2022/12/31 12:58:37;;;;;;;24.70;23.07;;;13.40;90.80;;;;;;5226609;22;20296;-93
2022/12/31 13:01:48;;;;;;;26.33;24.73;;;13.50;90.50;;;;;;5058234;28;20222;-93
2022/12/31 13:06:57;;;;;;;26.30;24.80;;;13.50;90.90;;;;;;5116877;22;20217;-92
2022/12/31 13:58:42;;;;;;;23.47;21.80;;;13.10;94.30;;;;;;3260032;26;20224;-92
2022/12/31 14:01:21;;;;;;;25.13;23.63;;;13.00;94.40;;;;;;5007444;28;20170;-93
2022/12/31 14:04:23;;;;;;;25.93;24.43;;;13.00;94.60;;;;;;5022617;28;20173;-93
2022/12/31 14:07:12;;;;;;;27.90;26.30;;;12.90;94.70;;;;;;4979581;28;20196;-93
2022/12/31 14:09:38;;;;;;;35.43;33.33;;;12.90;94.90;;;;;;4989318;28;20213;-93
2022/12/31 14:12:14;;;;;;;35.17;33.13;;;12.90;95.10;;;;;;4997099;28;20197;-93
2022/12/31 14:14:48;;;;;;;36.10;33.87;;;12.80;95.30;;;;;;4995072;28;20577;-93
2022/12/31 14:17:44;;;;;;;33.27;31.40;;;12.90;95.40;;;;;;4999263;28;20150;-92
2022/12/31 14:20:15;;;;;;;31.10;29.10;;;12.90;95.30;;;;;;5002601;28;20151;-91
2022/12/31 14:22:44;;;;;;;30.80;29.10;;;13.00;95.30;;;;;;4993878;28;20181;-92
2022/12/31 14:25:26;;;;;;;31.23;29.43;;;12.90;95.40;;;;;;4999337;28;20249;-93
2022/12/31 14:30:43;;;;;;;33.00;31.03;;;12.90;95.40;;;;;;5432182;22;20584;-93
2022/12/31 14:33:25;;;;;;;34.27;32.23;;;12.80;95.40;;;;;;5022738;28;20199;-92
2022/12/31 14:36:13;;;;;;;35.90;33.70;;;12.80;95.50;;;;;;5016580;28;20299;-93
2022/12/31 14:38:46;;;;;;;35.43;33.23;;;12.90;95.60;;;;;;5019072;28;20187;-92
2022/12/31 14:41:14;;;;;;;35.07;32.90;;;12.80;95.60;;;;;;5021355;28;20173;-92
2022/12/31 14:44:38;;;;;;;36.97;34.60;;;12.80;95.70;;;;;;5021369;28;20205;-93
2022/12/31 14:47:31;;;;;;;36.60;34.40;;;12.80;95.80;;;;;;5017538;28;20183;-92
2022/12/31 14:50:16;;;;;;;36.47;34.00;;;12.90;95.80;;;;;;5017393;28;20269;-92
2022/12/31 14:52:49;;;;;;;35.10;33.10;;;13.00;95.80;;;;;;5019469;28;20256;-93
2022/12/31 14:55:30;;;;;;;34.60;32.50;;;12.90;95.80;;;;;;5022002;28;20197;-92
2022/12/31 14:57:58;;;;;;;32.90;31.00;;;12.90;95.70;;;;;;5021245;28;20232;-93
2022/12/31 15:00:43;;;;;;;34.80;32.43;;;13.00;95.60;;;;;;5021216;28;20241;-93
2022/12/31 15:03:12;;;;;;;33.10;31.03;;;13.00;95.60;;;;;;5020239;28;20162;-93
2022/12/31 15:05:50;;;;;;;33.60;31.57;;;12.90;95.50;;;;;;5019031;28;20202;-93
2022/12/31 15:08:37;;;;;;;32.63;30.57;;;13.00;95.50;;;;;;5021119;28;20173;-90
2022/12/31 15:11:27;;;;;;;34.13;31.73;;;13.00;95.50;;;;;;5020634;28;20204;-93
2022/12/31 15:14:27;;;;;;;31.53;29.47;;;13.00;95.40;;;;;;5035049;28;20173;-90
2022/12/31 15:17:02;;;;;;;33.43;31.13;;;13.00;95.30;;;;;;5022073;28;20180;-93
2022/12/31 15:20:02;;;;;;;31.97;30.07;;;13.00;95.20;;;;;;5021529;28;20216;-92
2022/12/31 15:22:37;;;;;;;32.90;30.50;;;13.00;95.20;;;;;;5015329;28;20205;-91
2022/12/31 15:25:39;;;;;;;31.47;29.47;;;13.00;95.10;;;;;;5019757;28;20237;-92
2022/12/31 15:28:25;;;;;;;32.40;30.27;;;13.00;95.10;;;;;;5022210;28;20162;-92
2022/12/31 15:30:54;;;;;;;29.53;27.63;;;13.00;95.10;;;;;;5037202;28;20223;-93
2022/12/31 15:33:32;;;;;;;30.00;28.10;;;13.10;95.00;;;;;;5021496;28;20153;-90
2022/12/31 15:36:14;;;;;;;30.33;28.50;;;13.00;94.80;;;;;;5021514;28;20185;-91
2022/12/31 15:38:41;;;;;;;27.90;26.30;;;13.00;94.90;;;;;;5021950;28;20153;-90
2022/12/31 15:41:40;;;;;;;28.87;26.97;;;13.00;94.80;;;;;;5021867;28;20158;-92
2022/12/31 15:44:11;;;;;;;31.53;29.53;;;13.00;94.80;;;;;;5016864;28;20651;-93
2022/12/31 15:46:40;;;;;;;32.73;30.57;;;13.00;94.90;;;;;;5016561;28;20173;-93
2022/12/31 15:49:29;;;;;;;29.27;27.17;;;13.00;94.90;;;;;;5016236;28;20209;-93
2022/12/31 15:52:05;;;;;;;30.60;28.50;;;13.00;94.90;;;;;;5021250;28;20188;-93
2022/12/31 15:54:46;;;;;;;29.70;27.80;;;12.90;94.90;;;;;;5020516;28;20224;-91
2022/12/31 16:05:46;;;;;;;;;;;;;;;;;;;;;
2022/12/31 16:18:49;;;;;;;29.50;27.30;;;12.80;94.60;;;;;;5109267;22;20224;-91
2022/12/31 16:21:44;;;;;;;27.63;25.93;;;12.80;94.60;;;;;;5021274;28;20165;-92
2022/12/31 16:24:31;;;;;;;25.20;23.50;;;12.80;94.50;;;;;;5022369;28;20174;-93
2022/12/31 16:27:06;;;;;;;26.30;24.47;;;12.70;94.40;;;;;;5018445;28;20170;-93
2022/12/31 16:29:35;;;;;;;25.93;24.00;;;12.60;94.40;;;;;;5019260;28;20260;-93
2022/12/31 16:32:01;;;;;;;25.40;23.63;;;12.60;94.40;;;;;;5019097;28;20257;-93
2022/12/31 16:34:35;;;;;;;24.67;22.87;;;12.70;94.20;;;;;;5021226;28;20190;-93
2022/12/31 16:37:06;;;;;;;24.80;22.80;;;12.70;94.10;;;;;;5021506;28;20181;-92
2022/12/31 16:39:32;;;;;;;23.13;21.43;;;12.60;94.10;;;;;;5015459;28;20169;-92
2022/12/31 16:42:14;;;;;;;25.67;23.60;;;12.60;94.10;;;;;;5003436;28;20643;-92
2022/12/31 16:44:40;;;;;;;22.10;20.40;;;12.50;94.00;;;;;;5007912;28;20224;-92
2022/12/31 16:47:08;;;;;;;22.77;21.10;;;12.50;94.10;;;;;;5012546;28;20180;-92
2022/12/31 16:49:38;;;;;;;24.03;22.10;;;12.50;94.00;;;;;;5037693;28;20189;-92
2022/12/31 16:52:17;;;;;;;23.60;22.00;;;12.50;94.00;;;;;;5013514;28;20213;-92
2022/12/31 16:54:45;;;;;;;23.67;22.03;;;12.40;94.10;;;;;;5017303;28;20201;-92
2022/12/31 16:57:23;;;;;;;30.70;28.17;;;12.30;94.20;;;;;;5013812;28;20216;-92
2022/12/31 17:02:34;;;;;;;31.87;29.83;;;12.10;94.50;;;;;;5032283;28;20214;-91
2022/12/31 17:05:00;;;;;;;31.30;29.00;;;12.00;94.80;;;;;;5017356;28;20185;-92
2022/12/31 17:07:29;;;;;;;33.50;30.90;;;12.00;95.00;;;;;;5023786;28;20177;-92
2022/12/31 17:10:06;;;;;;;35.77;33.30;;;12.00;95.10;;;;;;5023353;28;20193;-92
2022/12/31 17:12:34;;;;;;;34.33;32.30;;;12.00;95.30;;;;;;5012038;28;20176;-92
2022/12/31 17:15:02;;;;;;;36.10;33.80;;;12.00;95.50;;;;;;5011773;28;20273;-92
2022/12/31 17:17:32;;;;;;;36.63;34.13;;;12.00;95.50;;;;;;5004960;28;20177;-91
2022/12/31 17:20:00;;;;;;;37.30;35.00;;;11.90;95.60;;;;;;5004392;28;20177;-91
2022/12/31 17:22:41;;;;;;;37.77;35.40;;;11.90;95.70;;;;;;5004224;28;20631;-92
2022/12/31 17:25:21;;;;;;;38.47;35.87;;;11.90;95.80;;;;;;5003268;28;20399;-91
2022/12/31 17:28:20;;;;;;;40.63;37.80;;;11.90;95.90;;;;;;5015688;28;20157;-92
2022/12/31 17:30:46;;;;;;;39.30;36.80;;;11.90;95.90;;;;;;5016391;28;20216;-92
2022/12/31 17:33:21;;;;;;;41.07;38.67;;;11.90;96.00;;;;;;5018302;28;20173;-89
2022/12/31 17:35:48;;;;;;;38.90;36.50;;;11.90;96.10;;;;;;5148067;23;20224;-93
2022/12/31 17:38:19;;;;;;;41.17;38.57;;;11.90;96.10;;;;;;5054324;28;20165;-91
2022/12/31 17:40:47;;;;;;;39.60;37.00;;;12.00;96.10;;;;;;5052195;28;20204;-93
2022/12/31 17:43:13;;;;;;;41.77;39.30;;;12.00;96.10;;;;;;5048761;28;20185;-91
2022/12/31 17:45:41;;;;;;;41.70;39.30;;;12.00;96.10;;;;;;5050962;28;20200;-93
2022/12/31 17:48:12;;;;;;;41.33;38.77;;;11.90;96.10;;;;;;5050669;28;20184;-93
2022/12/31 17:50:56;;;;;;;37.73;35.43;;;12.00;96.10;;;;;;5053261;28;20203;-93
2022/12/31 17:53:23;;;;;;;40.50;38.00;;;12.00;96.10;;;;;;5058339;28;20169;-94
2022/12/31 17:55:51;;;;;;;42.40;39.40;;;12.00;96.00;;;;;;5056837;28;20184;-94
2022/12/31 17:58:24;;;;;;;41.40;38.63;;;11.90;96.10;;;;;;5052333;28;20616;-93
2022/12/31 18:00:51;;;;;;;38.37;35.67;;;12.00;96.10;;;;;;5056124;28;20236;-93
2022/12/31 18:03:17;;;;;;;43.40;40.60;;;12.00;96.10;;;;;;5054143;28;20157;-93
2022/12/31 18:05:42;;;;;;;44.23;41.43;;;11.90;96.10;;;;;;5054927;28;20201;-93
2022/12/31 18:08:33;;;;;;;46.53;43.43;;;11.90;96.10;;;;;;5057171;28;20165;-94
2022/12/31 18:11:18;;;;;;;46.57;43.47;;;11.90;96.10;;;;;;5056503;28;20196;-93
2022/12/31 18:13:44;;;;;;;46.80;44.00;;;11.80;96.10;;;;;;5058908;28;20161;-92
2022/12/31 18:16:10;;;;;;;44.93;42.10;;;11.80;96.20;;;;;;5057625;28;20196;-93
2022/12/31 18:18:38;;;;;;;43.33;40.73;;;11.80;96.30;;;;;;5058068;28;20188;-93
2022/12/31 18:21:34;;;;;;;40.60;38.00;;;12.10;96.50;;;;;;5057495;28;20192;-93
2022/12/31 18:24:14;;;;;;;39.97;37.17;;;12.50;96.60;;;;;;5053344;28;20188;-93
2022/12/31 18:26:46;;;;;;;38.67;36.07;;;12.80;96.40;;;;;;5058290;28;20176;-93
2022/12/31 18:29:16;;;;;;;35.60;33.00;;;12.80;96.30;;;;;;5058059;28;20216;-92
2022/12/31 18:31:45;;;;;;;34.20;31.90;;;12.90;96.10;;;;;;5057180;28;20256;-93
2022/12/31 18:34:13;;;;;;;34.90;31.97;;;12.90;96.10;;;;;;5056832;28;20196;-94
2022/12/31 18:36:39;;;;;;;35.27;32.80;;;13.00;95.90;;;;;;5054032;28;20180;-94
2022/12/31 18:39:05;;;;;;;36.67;34.37;;;12.90;95.80;;;;;;5054697;28;20185;-94
2022/12/31 18:41:40;;;;;;;39.73;36.70;;;12.90;95.80;;;;;;5049621;28;20191;-93
2022/12/31 18:44:10;;;;;;;38.23;35.00;;;12.90;95.80;;;;;;5053928;28;20167;-94
2022/12/31 18:46:38;;;;;;;36.47;33.83;;;13.00;95.70;;;;;;5051479;28;20181;-93
2022/12/31 18:49:04;;;;;;;39.10;35.90;;;13.00;95.60;;;;;;5053343;28;20318;-93
2022/12/31 18:51:33;;;;;;;40.40;37.20;;;13.00;95.60;;;;;;5048083;28;20177;-93
2022/12/31 18:54:08;;;;;;;39.77;36.90;;;13.00;95.60;;;;;;5052280;28;20200;-93
2022/12/31 19:48:22;;;;;;;29.60;27.03;;;13.20;93.50;;;;;;3367151;26;20216;-94
2022/12/31 19:50:51;;;;;;;29.37;26.87;;;13.30;93.20;;;;;;5021606;28;20285;-91
2022/12/31 19:53:19;;;;;;;29.83;26.80;;;13.30;92.90;;;;;;5020512;28;20181;-94
2022/12/31 19:55:45;;;;;;;29.67;27.20;;;13.30;92.90;;;;;;5021244;28;20190;-93
2022/12/31 19:58:18;;;;;;;29.10;26.33;;;13.30;92.60;;;;;;5024157;28;20176;-92
2022/12/31 20:00:44;;;;;;;30.60;28.10;;;13.40;92.20;;;;;;5025460;28;20153;-93
2022/12/31 20:03:14;;;;;;;36.57;29.87;;;13.30;92.40;;;;;;5021492;28;20236;-94
2022/12/31 20:05:42;;;;;;;30.13;27.60;;;13.30;92.20;;;;;;5021143;28;20189;-92
2022/12/31 20:21:37;;;;;;;26.53;21.07;;;13.50;90.70;;;;;;2996273;22;20236;-93
2022/12/31 20:24:03;;;;;;;21.43;19.13;;;13.60;90.40;;;;;;5038523;28;20154;-93
2022/12/31 20:26:32;;;;;;;23.33;19.60;;;13.60;90.20;;;;;;5021633;28;20173;-93
2022/12/31 20:29:03;;;;;;;21.30;19.50;;;13.60;89.90;;;;;;5020661;28;20186;-93
2022/12/31 20:31:32;;;;;;;19.87;17.43;;;13.50;90.00;;;;;;5020518;28;20173;-93
2022/12/31 20:33:57;;;;;;;18.63;16.70;;;13.60;89.80;;;;;;5019867;28;20177;-93
2022/12/31 20:36:39;;;;;;;19.73;17.27;;;13.70;89.10;;;;;;5020322;28;20202;-93
2022/12/31 20:39:05;;;;;;;18.73;16.77;;;13.70;89.10;;;;;;5015237;28;20184;-92
2022/12/31 20:41:32;;;;;;;17.43;15.70;;;13.70;88.80;;;;;;5015911;28;20185;-91
2022/12/31 20:44:05;;;;;;;21.40;17.27;;;13.60;88.70;;;;;;5016694;28;20174;-92
2022/12/31 20:46:31;;;;;;;18.10;15.50;;;13.80;88.10;;;;;;5022427;28;20276;-93
2022/12/31 20:49:26;;;;;;;17.93;16.13;;;13.90;87.40;;;;;;5023370;28;20183;-93
2022/12/31 20:51:51;;;;;;;17.87;16.33;;;13.80;87.80;;;;;;5021441;28;20247;-93
2022/12/31 20:54:17;;;;;;;18.33;16.53;;;13.80;87.30;;;;;;5013540;28;20177;-92
2022/12/31 20:56:42;;;;;;;16.97;15.43;;;13.90;87.00;;;;;;5010354;28;20264;-91
2022/12/31 20:59:17;;;;;;;17.77;16.30;;;13.80;87.00;;;;;;5014211;28;20208;-92
2022/12/31 21:08:38;;;;;;;16.77;14.57;;;13.80;86.50;;;;;;4990485;28;20174;-93
2022/12/31 22:13:23;;;;;;;14.43;13.23;;;14.20;79.60;;;;;;5033426;28;20212;-93
2022/12/31 22:16:11;;;;;;;13.80;12.70;;;14.00;80.00;;;;;;5017730;28;20292;-92
2022/12/31 22:18:56;;;;;;;15.20;13.60;;;14.20;78.90;;;;;;5019414;28;20169;-93
2022/12/31 22:22:17;;;;;;;15.13;13.93;;;14.30;78.30;;;;;;5013729;28;20527;-91
2022/12/31 22:55:59;;;;;;;16.33;13.30;;;14.20;76.50;;;;;;5026549;28;20221;-92
2022/12/31 22:58:28;;;;;;;17.73;12.33;;;14.30;75.20;;;;;;5015687;28;20185;-92
2022/12/31 23:01:31;;;;;;;19.57;13.13;;;14.30;75.90;;;;;;5016430;28;20258;-93
2022/12/31 23:03:56;;;;;;;13.37;12.00;;;14.30;75.80;;;;;;4996040;28;20280;-91
2022/12/31 23:06:42;;;;;;;14.73;13.23;;;14.30;75.80;;;;;;5010993;28;20185;-93
2022/12/31 23:12:35;;;;;;;16.87;13.03;;;14.10;76.30;;;;;;5037709;28;20200;-93
2022/12/31 23:45:30;;;;;;;20.50;16.93;;;14.30;74.60;;;;;;2848532;22;20236;-91
2022/12/31 23:47:56;;;;;;;18.20;16.40;;;14.30;75.20;;;;;;5000505;28;20177;-91
2022/12/31 23:50:22;;;;;;;25.90;17.47;;;14.30;75.00;;;;;;4997307;28;20204;-90
2022/12/31 23:52:47;;;;;;;20.03;14.57;;;14.30;74.50;;;;;;4996642;28;20178;-91
2022/12/31 23:55:13;;;;;;;18.53;14.03;;;14.30;74.50;;;;;;5003621;28;20261;-93
2022/12/31 23:57:39;;;;;;;22.20;14.03;;;14.30;74.80;;;;;;4998786;28;20260;-91
